sensor_id;sensor_type;location;lat;lon;timestamp;pressure;altitude;pressure_sealevel;temperature;humidity
41830;BME280;38614;43.472;23.936;2023-09-19T00:02:39;100552.34;;;14.95;67.71
41830;BME280;38614;43.472;23.936;2023-09-19T00:05:28;100549.28;;;14.90;68.32
41830;BME280;38614;43.472;23.936;2023-09-19T00:08:16;100546.09;;;14.87;68.76
41830;BME280;38614;43.472;23.936;2023-09-19T00:11:04;100553.41;;;14.93;68.92
41830;BME280;38614;43.472;23.936;2023-09-19T00:13:53;100556.50;;;14.98;68.33
41830;BME280;38614;43.472;23.936;2023-09-19T00:16:42;100556.75;;;14.95;69.09
41830;BME280;38614;43.472;23.936;2023-09-19T00:19:35;100547.97;;;14.85;68.97
41830;BME280;38614;43.472;23.936;2023-09-19T00:22:26;100540.06;;;14.86;69.21
41830;BME280;38614;43.472;23.936;2023-09-19T00:25:14;100543.47;;;14.87;69.48
41830;BME280;38614;43.472;23.936;2023-09-19T00:28:04;100539.56;;;14.81;68.25
41830;BME280;38614;43.472;23.936;2023-09-19T00:30:54;100526.56;;;14.70;69.29
41830;BME280;38614;43.472;23.936;2023-09-19T00:33:42;100536.97;;;14.81;69.98
41830;BME280;38614;43.472;23.936;2023-09-19T00:36:31;100536.16;;;14.81;69.19
41830;BME280;38614;43.472;23.936;2023-09-19T00:39:18;100523.72;;;14.73;69.48
41830;BME280;38614;43.472;23.936;2023-09-19T00:42:07;100526.69;;;14.80;69.78
41830;BME280;38614;43.472;23.936;2023-09-19T00:44:55;100526.44;;;14.71;69.43
41830;BME280;38614;43.472;23.936;2023-09-19T00:47:45;100529.88;;;14.72;70.59
41830;BME280;38614;43.472;23.936;2023-09-19T00:50:36;100529.31;;;14.68;71.54
41830;BME280;38614;43.472;23.936;2023-09-19T00:53:33;100520.19;;;14.63;70.67
41830;BME280;38614;43.472;23.936;2023-09-19T00:56:22;100525.41;;;14.63;70.55
41830;BME280;38614;43.472;23.936;2023-09-19T00:59:11;100523.84;;;14.60;70.84
41830;BME280;38614;43.472;23.936;2023-09-19T01:01:59;100519.47;;;14.61;69.98
41830;BME280;38614;43.472;23.936;2023-09-19T01:04:48;100525.16;;;14.55;70.30
41830;BME280;38614;43.472;23.936;2023-09-19T01:07:36;100519.94;;;14.55;70.67
41830;BME280;38614;43.472;23.936;2023-09-19T01:10:28;100517.78;;;14.60;69.75
41830;BME280;38614;43.472;23.936;2023-09-19T01:13:39;100533.31;;;14.72;69.05
41830;BME280;38614;43.472;23.936;2023-09-19T01:20:15;100530.22;;;14.79;70.16
41830;BME280;38614;43.472;23.936;2023-09-19T01:23:16;100515.88;;;14.73;69.91
41830;BME280;38614;43.472;23.936;2023-09-19T01:29:39;100490.41;;;14.43;70.88
41830;BME280;38614;43.472;23.936;2023-09-19T01:32:31;100501.19;;;14.49;70.60
41830;BME280;38614;43.472;23.936;2023-09-19T01:35:20;100527.16;;;14.62;70.61
41830;BME280;38614;43.472;23.936;2023-09-19T01:38:08;100509.63;;;14.53;70.34
41830;BME280;38614;43.472;23.936;2023-09-19T01:41:07;100492.56;;;14.49;70.50
41830;BME280;38614;43.472;23.936;2023-09-19T01:43:59;100504.91;;;14.58;71.08
41830;BME280;38614;43.472;23.936;2023-09-19T01:46:52;100500.00;;;14.65;70.47
41830;BME280;38614;43.472;23.936;2023-09-19T01:53:26;100501.22;;;14.61;70.34
41830;BME280;38614;43.472;23.936;2023-09-19T01:56:45;100498.47;;;14.51;71.73
41830;BME280;38614;43.472;23.936;2023-09-19T01:59:45;100490.06;;;14.36;72.47
41830;BME280;38614;43.472;23.936;2023-09-19T02:02:37;100495.41;;;14.46;71.49
41830;BME280;38614;43.472;23.936;2023-09-19T02:05:26;100495.16;;;14.49;72.61
41830;BME280;38614;43.472;23.936;2023-09-19T02:08:23;100487.47;;;14.36;72.43
41830;BME280;38614;43.472;23.936;2023-09-19T02:11:13;100512.94;;;14.33;72.65
41830;BME280;38614;43.472;23.936;2023-09-19T02:14:02;100508.19;;;14.38;72.14
41830;BME280;38614;43.472;23.936;2023-09-19T02:16:52;100510.09;;;14.36;72.50
41830;BME280;38614;43.472;23.936;2023-09-19T02:19:39;100524.91;;;14.35;73.44
41830;BME280;38614;43.472;23.936;2023-09-19T02:22:28;100527.94;;;14.29;72.79
41830;BME280;38614;43.472;23.936;2023-09-19T02:25:17;100530.56;;;14.18;73.54
41830;BME280;38614;43.472;23.936;2023-09-19T02:28:05;100531.75;;;14.36;73.00
41830;BME280;38614;43.472;23.936;2023-09-19T02:30:54;100534.38;;;14.36;72.89
41830;BME280;38614;43.472;23.936;2023-09-19T02:33:42;100530.78;;;14.26;73.57
41830;BME280;38614;43.472;23.936;2023-09-19T02:36:31;100529.94;;;14.03;76.14
41830;BME280;38614;43.472;23.936;2023-09-19T02:39:19;100537.75;;;13.92;73.98
41830;BME280;38614;43.472;23.936;2023-09-19T02:42:07;100508.88;;;13.95;72.71
41830;BME280;38614;43.472;23.936;2023-09-19T02:44:55;100512.28;;;13.95;72.71
41830;BME280;38614;43.472;23.936;2023-09-19T02:47:45;100518.69;;;13.91;73.29
41830;BME280;38614;43.472;23.936;2023-09-19T02:50:33;100518.69;;;13.80;75.08
41830;BME280;38614;43.472;23.936;2023-09-19T02:53:21;100499.72;;;13.78;74.52
41830;BME280;38614;43.472;23.936;2023-09-19T02:56:10;100506.84;;;13.87;74.09
41830;BME280;38614;43.472;23.936;2023-09-19T02:59:01;100505.41;;;13.83;74.34
41830;BME280;38614;43.472;23.936;2023-09-19T03:01:50;100492.50;;;13.81;75.11
41830;BME280;38614;43.472;23.936;2023-09-19T03:04:38;100488.97;;;13.82;75.20
41830;BME280;38614;43.472;23.936;2023-09-19T03:07:26;100485.66;;;13.80;75.32
41830;BME280;38614;43.472;23.936;2023-09-19T03:10:14;100484.00;;;13.79;75.28
41830;BME280;38614;43.472;23.936;2023-09-19T03:13:03;100453.19;;;13.62;74.37
41830;BME280;38614;43.472;23.936;2023-09-19T03:15:54;100483.53;;;13.85;75.15
41830;BME280;38614;43.472;23.936;2023-09-19T03:18:46;100489.53;;;13.75;74.67
41830;BME280;38614;43.472;23.936;2023-09-19T03:21:35;100503.25;;;13.66;75.52
41830;BME280;38614;43.472;23.936;2023-09-19T03:24:23;100493.50;;;13.56;75.98
41830;BME280;38614;43.472;23.936;2023-09-19T03:27:12;100488.81;;;13.61;75.77
41830;BME280;38614;43.472;23.936;2023-09-19T03:30:04;100510.13;;;13.67;76.44
41830;BME280;38614;43.472;23.936;2023-09-19T03:32:57;100499.56;;;13.57;75.93
41830;BME280;38614;43.472;23.936;2023-09-19T03:35:52;100503.59;;;13.61;76.39
41830;BME280;38614;43.472;23.936;2023-09-19T03:38:41;100510.25;;;13.65;77.85
41830;BME280;38614;43.472;23.936;2023-09-19T03:41:29;100501.00;;;13.61;77.09
41830;BME280;38614;43.472;23.936;2023-09-19T03:44:17;100509.28;;;13.66;76.54
41830;BME280;38614;43.472;23.936;2023-09-19T03:47:05;100514.22;;;13.58;76.69
41830;BME280;38614;43.472;23.936;2023-09-19T03:49:55;100520.94;;;13.49;77.49
41830;BME280;38614;43.472;23.936;2023-09-19T03:52:46;100535.47;;;13.40;77.30
41830;BME280;38614;43.472;23.936;2023-09-19T03:55:47;100534.25;;;13.33;76.61
41830;BME280;38614;43.472;23.936;2023-09-19T03:58:36;100529.03;;;13.33;75.66
41830;BME280;38614;43.472;23.936;2023-09-19T04:01:26;100531.31;;;13.38;76.16
41830;BME280;38614;43.472;23.936;2023-09-19T04:04:16;100532.28;;;13.24;76.12
41830;BME280;38614;43.472;23.936;2023-09-19T04:07:06;100528.88;;;13.24;77.31
41830;BME280;38614;43.472;23.936;2023-09-19T04:09:56;100536.63;;;13.36;75.58
41830;BME280;38614;43.472;23.936;2023-09-19T04:12:54;100516.75;;;13.35;75.72
41830;BME280;38614;43.472;23.936;2023-09-19T04:15:45;100526.88;;;13.51;76.29
41830;BME280;38614;43.472;23.936;2023-09-19T04:18:33;100528.63;;;13.51;75.52
41830;BME280;38614;43.472;23.936;2023-09-19T04:21:25;100524.34;;;13.38;74.96
41830;BME280;38614;43.472;23.936;2023-09-19T04:24:14;100542.59;;;13.26;76.09
41830;BME280;38614;43.472;23.936;2023-09-19T04:27:02;100549.81;;;13.46;76.24
41830;BME280;38614;43.472;23.936;2023-09-19T04:29:50;100550.84;;;13.44;76.57
41830;BME280;38614;43.472;23.936;2023-09-19T04:32:39;100540.53;;;13.42;76.48
41830;BME280;38614;43.472;23.936;2023-09-19T04:35:29;100550.16;;;13.53;77.89
41830;BME280;38614;43.472;23.936;2023-09-19T04:38:19;100547.91;;;13.48;76.92
41830;BME280;38614;43.472;23.936;2023-09-19T04:41:07;100545.41;;;13.71;76.17
41830;BME280;38614;43.472;23.936;2023-09-19T04:43:55;100540.66;;;13.76;76.34
41830;BME280;38614;43.472;23.936;2023-09-19T04:46:43;100531.69;;;13.80;76.15
41830;BME280;38614;43.472;23.936;2023-09-19T04:49:34;100515.84;;;13.83;77.12
41830;BME280;38614;43.472;23.936;2023-09-19T04:52:24;100521.41;;;14.01;74.71
41830;BME280;38614;43.472;23.936;2023-09-19T04:55:16;100526.19;;;14.07;75.12
41830;BME280;38614;43.472;23.936;2023-09-19T04:58:06;100521.81;;;14.19;74.74
41830;BME280;38614;43.472;23.936;2023-09-19T05:00:54;100530.94;;;14.36;74.28
41830;BME280;38614;43.472;23.936;2023-09-19T05:03:44;100530.94;;;14.47;73.89
41830;BME280;38614;43.472;23.936;2023-09-19T05:06:32;100511.97;;;14.45;73.82
41830;BME280;38614;43.472;23.936;2023-09-19T05:09:21;100513.28;;;14.50;73.00
41830;BME280;38614;43.472;23.936;2023-09-19T05:12:09;100525.97;;;14.78;72.78
41830;BME280;38614;43.472;23.936;2023-09-19T05:14:58;100510.34;;;14.66;72.91
41830;BME280;38614;43.472;23.936;2023-09-19T05:17:50;100525.13;;;14.88;71.74
41830;BME280;38614;43.472;23.936;2023-09-19T05:20:44;100526.16;;;14.97;71.55
41830;BME280;38614;43.472;23.936;2023-09-19T05:23:31;100511.50;;;15.17;70.65
41830;BME280;38614;43.472;23.936;2023-09-19T05:26:20;100505.56;;;15.15;71.72
41830;BME280;38614;43.472;23.936;2023-09-19T05:29:08;100513.16;;;15.18;71.39
41830;BME280;38614;43.472;23.936;2023-09-19T05:31:56;100510.22;;;15.44;71.14
41830;BME280;38614;43.472;23.936;2023-09-19T05:34:44;100510.19;;;15.55;70.03
41830;BME280;38614;43.472;23.936;2023-09-19T05:37:32;100508.09;;;15.70;70.19
41830;BME280;38614;43.472;23.936;2023-09-19T05:40:20;100501.47;;;15.86;70.35
41830;BME280;38614;43.472;23.936;2023-09-19T05:43:11;100508.25;;;16.20;68.86
41830;BME280;38614;43.472;23.936;2023-09-19T05:46:00;100499.50;;;16.40;68.67
41830;BME280;38614;43.472;23.936;2023-09-19T05:48:47;100492.97;;;16.56;68.71
41830;BME280;38614;43.472;23.936;2023-09-19T05:51:37;100500.31;;;16.31;69.12
41830;BME280;38614;43.472;23.936;2023-09-19T05:54:25;100504.19;;;16.06;70.22
41830;BME280;38614;43.472;23.936;2023-09-19T05:57:12;100484.94;;;16.07;70.39
41830;BME280;38614;43.472;23.936;2023-09-19T06:00:02;100491.41;;;16.43;70.00
41830;BME280;38614;43.472;23.936;2023-09-19T06:02:58;100485.47;;;16.82;69.44
41830;BME280;38614;43.472;23.936;2023-09-19T06:05:47;100477.09;;;17.07;68.56
41830;BME280;38614;43.472;23.936;2023-09-19T06:08:36;100480.09;;;17.51;67.02
41830;BME280;38614;43.472;23.936;2023-09-19T06:11:24;100489.19;;;17.86;66.18
41830;BME280;38614;43.472;23.936;2023-09-19T06:14:14;100482.53;;;17.92;65.73
41830;BME280;38614;43.472;23.936;2023-09-19T06:17:01;100479.59;;;17.28;67.62
41830;BME280;38614;43.472;23.936;2023-09-19T06:19:50;100487.63;;;17.93;65.72
41830;BME280;38614;43.472;23.936;2023-09-19T06:22:39;100491.50;;;17.89;65.96
41830;BME280;38614;43.472;23.936;2023-09-19T06:25:29;100480.56;;;18.03;66.20
41830;BME280;38614;43.472;23.936;2023-09-19T06:28:17;100497.75;;;18.16;66.20
41830;BME280;38614;43.472;23.936;2023-09-19T06:31:11;100493.69;;;18.03;66.89
41830;BME280;38614;43.472;23.936;2023-09-19T06:33:58;100490.97;;;18.23;65.67
41830;BME280;38614;43.472;23.936;2023-09-19T06:36:47;100498.16;;;18.48;65.91
41830;BME280;38614;43.472;23.936;2023-09-19T06:39:37;100496.72;;;18.36;66.40
41830;BME280;38614;43.472;23.936;2023-09-19T06:42:24;100478.69;;;18.23;65.00
41830;BME280;38614;43.472;23.936;2023-09-19T06:45:14;100493.16;;;18.27;66.67
41830;BME280;38614;43.472;23.936;2023-09-19T06:48:06;100490.63;;;18.08;65.78
41830;BME280;38614;43.472;23.936;2023-09-19T06:50:55;100488.34;;;18.23;66.21
41830;BME280;38614;43.472;23.936;2023-09-19T06:53:43;100481.94;;;18.35;66.04
41830;BME280;38614;43.472;23.936;2023-09-19T06:56:30;100484.47;;;18.54;65.36
41830;BME280;38614;43.472;23.936;2023-09-19T06:59:19;100475.66;;;18.56;66.29
41830;BME280;38614;43.472;23.936;2023-09-19T07:02:07;100477.03;;;18.78;66.57
41830;BME280;38614;43.472;23.936;2023-09-19T07:04:56;100480.50;;;18.78;64.59
41830;BME280;38614;43.472;23.936;2023-09-19T07:07:44;100457.50;;;18.90;64.83
41830;BME280;38614;43.472;23.936;2023-09-19T07:10:33;100463.72;;;19.07;63.13
41830;BME280;38614;43.472;23.936;2023-09-19T07:13:21;100467.00;;;19.27;63.76
41830;BME280;38614;43.472;23.936;2023-09-19T07:16:08;100467.88;;;19.35;63.28
41830;BME280;38614;43.472;23.936;2023-09-19T07:18:57;100466.25;;;19.34;63.52
41830;BME280;38614;43.472;23.936;2023-09-19T07:21:47;100473.06;;;19.45;62.42
41830;BME280;38614;43.472;23.936;2023-09-19T07:24:35;100472.84;;;19.82;61.75
41830;BME280;38614;43.472;23.936;2023-09-19T07:27:24;100461.31;;;20.09;60.82
41830;BME280;38614;43.472;23.936;2023-09-19T07:30:15;100449.47;;;20.48;59.87
41830;BME280;38614;43.472;23.936;2023-09-19T07:33:03;100462.84;;;20.63;59.90
41830;BME280;38614;43.472;23.936;2023-09-19T07:35:55;100471.94;;;20.85;58.97
41830;BME280;38614;43.472;23.936;2023-09-19T07:38:42;100471.63;;;20.88;59.81
41830;BME280;38614;43.472;23.936;2023-09-19T07:41:30;100465.38;;;21.30;56.42
41830;BME280;38614;43.472;23.936;2023-09-19T07:44:19;100446.59;;;21.08;56.81
41830;BME280;38614;43.472;23.936;2023-09-19T07:47:07;100455.00;;;21.20;56.45
41830;BME280;38614;43.472;23.936;2023-09-19T07:49:58;100455.19;;;21.43;55.50
41830;BME280;38614;43.472;23.936;2023-09-19T07:52:48;100450.38;;;21.63;56.00
41830;BME280;38614;43.472;23.936;2023-09-19T07:55:38;100448.06;;;21.76;55.57
41830;BME280;38614;43.472;23.936;2023-09-19T07:58:28;100449.19;;;21.82;55.90
41830;BME280;38614;43.472;23.936;2023-09-19T08:01:16;100438.81;;;21.72;57.06
41830;BME280;38614;43.472;23.936;2023-09-19T08:04:04;100433.19;;;22.31;53.93
41830;BME280;38614;43.472;23.936;2023-09-19T08:06:52;100448.78;;;22.49;52.75
41830;BME280;38614;43.472;23.936;2023-09-19T08:09:41;100446.06;;;22.65;51.54
41830;BME280;38614;43.472;23.936;2023-09-19T08:12:29;100458.31;;;22.81;52.00
41830;BME280;38614;43.472;23.936;2023-09-19T08:15:19;100459.25;;;22.65;53.92
41830;BME280;38614;43.472;23.936;2023-09-19T08:18:09;100454.31;;;22.62;53.06
41830;BME280;38614;43.472;23.936;2023-09-19T08:20:59;100449.31;;;22.67;54.19
41830;BME280;38614;43.472;23.936;2023-09-19T08:23:50;100457.13;;;22.84;51.78
41830;BME280;38614;43.472;23.936;2023-09-19T08:26:37;100446.22;;;22.87;51.31
41830;BME280;38614;43.472;23.936;2023-09-19T08:29:25;100440.94;;;22.87;51.10
41830;BME280;38614;43.472;23.936;2023-09-19T08:32:15;100416.16;;;22.65;53.32
41830;BME280;38614;43.472;23.936;2023-09-19T08:35:03;100431.25;;;23.40;51.63
41830;BME280;38614;43.472;23.936;2023-09-19T08:37:54;100426.59;;;23.27;50.47
41830;BME280;38614;43.472;23.936;2023-09-19T08:40:43;100417.50;;;23.30;50.77
41830;BME280;38614;43.472;23.936;2023-09-19T08:43:31;100428.00;;;23.38;49.83
41830;BME280;38614;43.472;23.936;2023-09-19T08:46:24;100400.03;;;23.58;50.70
41830;BME280;38614;43.472;23.936;2023-09-19T08:49:29;100398.56;;;24.00;48.86
41830;BME280;38614;43.472;23.936;2023-09-19T08:52:25;100412.63;;;24.52;47.68
41830;BME280;38614;43.472;23.936;2023-09-19T08:55:15;100412.47;;;25.03;46.29
41830;BME280;38614;43.472;23.936;2023-09-19T08:58:10;100408.94;;;25.17;47.06
41830;BME280;38614;43.472;23.936;2023-09-19T09:01:01;100404.03;;;24.93;47.37
41830;BME280;38614;43.472;23.936;2023-09-19T09:03:49;100409.22;;;24.80;46.58
41830;BME280;38614;43.472;23.936;2023-09-19T09:06:39;100401.34;;;24.86;46.03
41830;BME280;38614;43.472;23.936;2023-09-19T09:09:31;100398.94;;;24.91;45.19
41830;BME280;38614;43.472;23.936;2023-09-19T09:12:19;100403.47;;;25.19;43.64
41830;BME280;38614;43.472;23.936;2023-09-19T09:15:08;100404.72;;;25.23;44.78
41830;BME280;38614;43.472;23.936;2023-09-19T09:17:59;100390.25;;;25.04;44.69
41830;BME280;38614;43.472;23.936;2023-09-19T09:20:48;100390.25;;;25.26;44.22
41830;BME280;38614;43.472;23.936;2023-09-19T09:23:40;100378.94;;;25.38;43.03
41830;BME280;38614;43.472;23.936;2023-09-19T09:29:44;100387.41;;;25.97;41.52
41830;BME280;38614;43.472;23.936;2023-09-19T09:32:34;100379.91;;;26.14;40.42
41830;BME280;38614;43.472;23.936;2023-09-19T09:35:32;100382.28;;;25.89;40.78
41830;BME280;38614;43.472;23.936;2023-09-19T09:38:24;100378.91;;;26.21;40.11
41830;BME280;38614;43.472;23.936;2023-09-19T09:41:19;100382.00;;;26.38;39.38
41830;BME280;38614;43.472;23.936;2023-09-19T09:44:26;100373.50;;;26.76;40.35
41830;BME280;38614;43.472;23.936;2023-09-19T09:47:45;100371.25;;;27.06;37.47
41830;BME280;38614;43.472;23.936;2023-09-19T09:50:47;100376.16;;;27.16;37.35
41830;BME280;38614;43.472;23.936;2023-09-19T09:53:38;100376.31;;;27.41;36.85
41830;BME280;38614;43.472;23.936;2023-09-19T09:56:26;100358.84;;;27.72;36.83
41830;BME280;38614;43.472;23.936;2023-09-19T09:59:18;100366.81;;;27.72;34.64
41830;BME280;38614;43.472;23.936;2023-09-19T10:02:11;100379.22;;;27.39;35.82
41830;BME280;38614;43.472;23.936;2023-09-19T10:05:12;100374.72;;;27.33;35.79
41830;BME280;38614;43.472;23.936;2023-09-19T10:08:22;100363.28;;;27.26;35.88
41830;BME280;38614;43.472;23.936;2023-09-19T10:11:16;100372.88;;;27.07;36.60
41830;BME280;38614;43.472;23.936;2023-09-19T10:14:04;100374.34;;;26.83;35.84
41830;BME280;38614;43.472;23.936;2023-09-19T10:16:54;100369.81;;;26.77;35.82
41830;BME280;38614;43.472;23.936;2023-09-19T10:19:57;100370.44;;;26.92;34.57
41830;BME280;38614;43.472;23.936;2023-09-19T10:22:47;100369.81;;;27.24;36.12
41830;BME280;38614;43.472;23.936;2023-09-19T10:25:45;100359.59;;;27.27;35.66
41830;BME280;38614;43.472;23.936;2023-09-19T10:28:35;100363.91;;;27.28;34.33
41830;BME280;38614;43.472;23.936;2023-09-19T10:31:26;100357.16;;;27.06;35.52
41830;BME280;38614;43.472;23.936;2023-09-19T10:34:19;100324.22;;;27.00;32.90
41830;BME280;38614;43.472;23.936;2023-09-19T10:37:11;100351.44;;;27.22;35.67
41830;BME280;38614;43.472;23.936;2023-09-19T10:40:00;100361.22;;;27.28;35.23
41830;BME280;38614;43.472;23.936;2023-09-19T10:42:48;100353.88;;;27.30;34.74
41830;BME280;38614;43.472;23.936;2023-09-19T10:45:38;100354.28;;;26.67;34.86
41830;BME280;38614;43.472;23.936;2023-09-19T10:48:27;100336.72;;;26.66;34.54
41830;BME280;38614;43.472;23.936;2023-09-19T10:51:19;100348.38;;;27.05;36.30
41830;BME280;38614;43.472;23.936;2023-09-19T10:54:12;100345.72;;;26.92;35.04
41830;BME280;38614;43.472;23.936;2023-09-19T10:57:03;100348.19;;;26.80;35.54
41830;BME280;38614;43.472;23.936;2023-09-19T11:00:06;100334.25;;;26.91;34.87
41830;BME280;38614;43.472;23.936;2023-09-19T11:09:02;100334.22;;;27.05;35.37
41830;BME280;38614;43.472;23.936;2023-09-19T11:27:15;100329.56;;;26.67;36.29
41830;BME280;38614;43.472;23.936;2023-09-19T11:30:27;100328.94;;;26.51;35.86
41830;BME280;38614;43.472;23.936;2023-09-19T11:36:16;100325.66;;;26.63;34.68
41830;BME280;38614;43.472;23.936;2023-09-19T11:39:05;100313.00;;;26.65;35.75
41830;BME280;38614;43.472;23.936;2023-09-19T11:41:56;100306.84;;;26.98;36.02
41830;BME280;38614;43.472;23.936;2023-09-19T11:44:44;100295.66;;;27.54;33.65
41830;BME280;38614;43.472;23.936;2023-09-19T11:47:32;100299.25;;;27.86;32.46
41830;BME280;38614;43.472;23.936;2023-09-19T11:50:23;100302.94;;;27.72;31.36
41830;BME280;38614;43.472;23.936;2023-09-19T11:53:11;100296.25;;;27.62;32.31
41830;BME280;38614;43.472;23.936;2023-09-19T11:55:59;100291.34;;;27.59;31.24
41830;BME280;38614;43.472;23.936;2023-09-19T11:58:52;100296.53;;;28.24;33.90
41830;BME280;38614;43.472;23.936;2023-09-19T12:01:51;100295.47;;;28.32;31.79
41830;BME280;38614;43.472;23.936;2023-09-19T12:04:43;100287.13;;;28.22;32.23
41830;BME280;38614;43.472;23.936;2023-09-19T12:07:42;100285.06;;;28.56;31.88
41830;BME280;38614;43.472;23.936;2023-09-19T12:10:54;100284.94;;;28.12;31.91
41830;BME280;38614;43.472;23.936;2023-09-19T12:13:47;100287.13;;;27.90;32.09
41830;BME280;38614;43.472;23.936;2023-09-19T12:16:36;100285.22;;;27.52;32.95
41830;BME280;38614;43.472;23.936;2023-09-19T12:19:24;100264.94;;;27.58;34.91
41830;BME280;38614;43.472;23.936;2023-09-19T12:22:12;100269.34;;;27.77;33.85
41830;BME280;38614;43.472;23.936;2023-09-19T12:25:08;100275.88;;;28.20;32.22
41830;BME280;38614;43.472;23.936;2023-09-19T12:27:58;100276.63;;;28.59;31.33
41830;BME280;38614;43.472;23.936;2023-09-19T12:30:46;100266.94;;;28.39;30.62
41830;BME280;38614;43.472;23.936;2023-09-19T12:33:34;100265.09;;;28.08;31.29
41830;BME280;38614;43.472;23.936;2023-09-19T12:36:24;100266.06;;;28.14;34.75
41830;BME280;38614;43.472;23.936;2023-09-19T12:39:23;100260.59;;;28.09;31.15
41830;BME280;38614;43.472;23.936;2023-09-19T12:42:15;100262.38;;;27.83;32.37
41830;BME280;38614;43.472;23.936;2023-09-19T12:45:07;100268.63;;;28.02;32.23
41830;BME280;38614;43.472;23.936;2023-09-19T12:48:19;100259.91;;;28.20;32.11
41830;BME280;38614;43.472;23.936;2023-09-19T12:51:17;100246.06;;;28.36;30.82
41830;BME280;38614;43.472;23.936;2023-09-19T12:54:10;100255.88;;;28.42;30.47
41830;BME280;38614;43.472;23.936;2023-09-19T12:57:02;100258.34;;;28.62;30.56
41830;BME280;38614;43.472;23.936;2023-09-19T12:59:52;100254.22;;;28.85;31.15
41830;BME280;38614;43.472;23.936;2023-09-19T13:06:05;100253.91;;;28.24;30.48
41830;BME280;38614;43.472;23.936;2023-09-19T13:09:08;100247.06;;;28.10;31.42
41830;BME280;38614;43.472;23.936;2023-09-19T13:11:57;100245.06;;;28.31;31.60
41830;BME280;38614;43.472;23.936;2023-09-19T13:14:46;100235.97;;;28.45;31.32
41830;BME280;38614;43.472;23.936;2023-09-19T13:17:47;100227.28;;;28.24;31.88
41830;BME280;38614;43.472;23.936;2023-09-19T13:20:38;100234.69;;;28.22;31.82
41830;BME280;38614;43.472;23.936;2023-09-19T13:23:31;100219.09;;;27.94;31.39
41830;BME280;38614;43.472;23.936;2023-09-19T13:26:19;100232.03;;;27.91;32.68
41830;BME280;38614;43.472;23.936;2023-09-19T13:29:07;100233.63;;;27.60;32.07
41830;BME280;38614;43.472;23.936;2023-09-19T13:31:55;100236.72;;;27.57;32.91
41830;BME280;38614;43.472;23.936;2023-09-19T13:34:43;100235.34;;;27.41;32.38
41830;BME280;38614;43.472;23.936;2023-09-19T13:37:33;100245.84;;;27.29;32.13
41830;BME280;38614;43.472;23.936;2023-09-19T13:40:23;100243.41;;;27.28;33.23
41830;BME280;38614;43.472;23.936;2023-09-19T13:43:12;100241.16;;;27.18;32.80
41830;BME280;38614;43.472;23.936;2023-09-19T13:46:00;100246.53;;;26.98;31.88
41830;BME280;38614;43.472;23.936;2023-09-19T13:48:50;100254.72;;;26.90;32.16
41830;BME280;38614;43.472;23.936;2023-09-19T13:51:38;100261.28;;;26.74;33.35
41830;BME280;38614;43.472;23.936;2023-09-19T13:54:29;100218.78;;;26.21;34.36
41830;BME280;38614;43.472;23.936;2023-09-19T13:57:17;100257.41;;;26.30;33.26
41830;BME280;38614;43.472;23.936;2023-09-19T14:00:08;100257.38;;;26.10;33.57
41830;BME280;38614;43.472;23.936;2023-09-19T14:02:58;100252.47;;;26.00;33.87
41830;BME280;38614;43.472;23.936;2023-09-19T14:05:50;100247.97;;;25.94;34.08
41830;BME280;38614;43.472;23.936;2023-09-19T14:08:39;100239.78;;;25.89;35.02
41830;BME280;38614;43.472;23.936;2023-09-19T14:11:27;100244.69;;;25.92;34.71
41830;BME280;38614;43.472;23.936;2023-09-19T14:14:15;100233.19;;;25.78;34.22
41830;BME280;38614;43.472;23.936;2023-09-19T14:17:06;100240.50;;;25.63;34.54
41830;BME280;38614;43.472;23.936;2023-09-19T14:19:54;100248.50;;;25.70;35.96
41830;BME280;38614;43.472;23.936;2023-09-19T14:22:44;100258.88;;;25.71;36.08
41830;BME280;38614;43.472;23.936;2023-09-19T14:25:34;100257.66;;;25.67;34.72
41830;BME280;38614;43.472;23.936;2023-09-19T14:28:22;100244.34;;;25.54;35.49
41830;BME280;38614;43.472;23.936;2023-09-19T14:31:12;100253.97;;;25.55;35.48
41830;BME280;38614;43.472;23.936;2023-09-19T14:34:04;100250.06;;;25.57;35.87
41830;BME280;38614;43.472;23.936;2023-09-19T14:36:53;100252.06;;;25.42;36.48
41830;BME280;38614;43.472;23.936;2023-09-19T14:40:04;100233.03;;;25.25;36.57
41830;BME280;38614;43.472;23.936;2023-09-19T14:43:01;100237.59;;;25.10;37.53
41830;BME280;38614;43.472;23.936;2023-09-19T14:45:49;100239.19;;;25.04;37.02
41830;BME280;38614;43.472;23.936;2023-09-19T14:48:39;100240.34;;;24.88;37.11
41830;BME280;38614;43.472;23.936;2023-09-19T14:51:29;100231.28;;;24.76;37.70
41830;BME280;38614;43.472;23.936;2023-09-19T14:54:17;100234.47;;;24.65;38.04
41830;BME280;38614;43.472;23.936;2023-09-19T14:57:07;100239.38;;;24.68;37.98
41830;BME280;38614;43.472;23.936;2023-09-19T14:59:56;100243.22;;;24.65;37.90
41830;BME280;38614;43.472;23.936;2023-09-19T15:02:44;100250.19;;;24.66;38.41
41830;BME280;38614;43.472;23.936;2023-09-19T15:05:33;100251.81;;;24.67;38.09
41830;BME280;38614;43.472;23.936;2023-09-19T15:08:22;100247.31;;;24.68;38.45
41830;BME280;38614;43.472;23.936;2023-09-19T15:11:10;100251.13;;;24.59;38.66
41830;BME280;38614;43.472;23.936;2023-09-19T15:14:00;100237.19;;;24.43;38.74
41830;BME280;38614;43.472;23.936;2023-09-19T15:16:48;100254.63;;;24.38;39.30
41830;BME280;38614;43.472;23.936;2023-09-19T15:19:36;100249.50;;;24.36;39.23
41830;BME280;38614;43.472;23.936;2023-09-19T15:22:25;100253.72;;;24.30;39.26
41830;BME280;38614;43.472;23.936;2023-09-19T15:25:17;100240.81;;;24.21;39.17